Time;durP1;ratioP1;P1;durP2;ratioP2;P2;SDS_P1;SDS_P2;PMS_P1;PMS_P2;Temp;Humidity;BMP_temperature;BMP_pressure;BME280_temperature;BME280_humidity;BME280_pressure;Samples;Min_cycle;Max_cycle;Signal;HPM_P1;HPM_P2
2022/03/26 00:00:50;;;;;;;12.05;6.82;;;10.20;61.50;;;;;;2057493;28;20042;-88
2022/03/26 00:01:51;;;;;;;12.10;6.50;;;10.20;60.90;;;;;;2061783;28;20061;-88
2022/03/26 00:02:51;;;;;;;14.35;7.13;;;10.20;60.90;;;;;;2057959;28;20023;-88
2022/03/26 00:03:52;;;;;;;10.90;6.10;;;10.20;60.90;;;;;;2049533;28;20043;-88
2022/03/26 00:04:53;;;;;;;11.27;6.43;;;10.20;61.00;;;;;;2073988;28;20369;-89
2022/03/26 00:05:54;;;;;;;12.00;6.43;;;10.20;61.00;;;;;;2064591;28;20504;-88
2022/03/26 00:06:54;;;;;;;10.95;6.05;;;10.20;61.10;;;;;;2065681;28;20544;-88
2022/03/26 00:07:55;;;;;;;10.75;6.45;;;10.10;61.00;;;;;;2072334;28;20048;-88
2022/03/26 00:08:56;;;;;;;12.50;6.00;;;10.20;61.20;;;;;;2073947;28;20029;-88
2022/03/26 00:09:56;;;;;;;11.85;6.30;;;10.20;61.20;;;;;;2060697;28;20034;-88
2022/03/26 00:10:57;;;;;;;12.38;6.20;;;10.20;61.30;;;;;;2065999;28;20027;-88
2022/03/26 00:11:57;;;;;;;10.65;6.13;;;10.20;61.30;;;;;;2068448;28;20045;-88
2022/03/26 00:12:58;;;;;;;11.38;6.32;;;10.10;61.20;;;;;;2070406;28;20034;-88
2022/03/26 00:13:59;;;;;;;11.18;6.03;;;10.20;61.30;;;;;;2072879;28;20030;-88
2022/03/26 00:15:00;;;;;;;10.52;6.05;;;10.10;61.20;;;;;;2073250;28;20026;-88
2022/03/26 00:16:01;;;;;;;12.35;6.13;;;10.10;61.20;;;;;;2064929;28;20035;-88
2022/03/26 00:17:02;;;;;;;10.73;6.10;;;10.10;61.30;;;;;;2065691;28;20576;-88
2022/03/26 00:18:03;;;;;;;11.93;6.50;;;10.10;61.30;;;;;;2065442;28;20070;-88
2022/03/26 00:19:04;;;;;;;10.27;6.03;;;10.10;61.40;;;;;;2057560;28;20440;-88
2022/03/26 00:20:06;;;;;;;10.13;6.47;;;10.10;61.40;;;;;;2062811;28;20041;-88
2022/03/26 00:21:07;;;;;;;12.43;7.07;;;10.10;61.40;;;;;;2063354;28;20038;-88
2022/03/26 00:22:08;;;;;;;13.73;6.57;;;10.10;61.40;;;;;;2073456;28;20125;-89
2022/03/26 00:23:08;;;;;;;12.93;6.85;;;10.10;62.10;;;;;;2072682;28;20392;-88
2022/03/26 00:24:09;;;;;;;11.88;6.80;;;10.10;61.60;;;;;;2065675;28;20492;-88
2022/03/26 00:25:13;;;;;;;15.00;6.43;;;10.00;61.50;;;;;;2057603;28;20084;-88
2022/03/26 00:26:15;;;;;;;12.50;7.03;;;10.00;61.50;;;;;;2058657;28;20097;-88
2022/03/26 00:27:17;;;;;;;10.95;6.63;;;10.00;61.60;;;;;;2073942;28;20500;-88
2022/03/26 00:28:18;;;;;;;12.82;7.47;;;10.00;61.60;;;;;;2072881;28;20057;-89
2022/03/26 00:29:19;;;;;;;12.40;6.53;;;10.00;62.20;;;;;;2073685;28;20515;-88
2022/03/26 00:30:20;;;;;;;12.48;6.35;;;10.00;61.60;;;;;;2073413;28;20049;-88
2022/03/26 00:31:20;;;;;;;12.52;6.30;;;10.00;61.70;;;;;;2072547;28;20057;-89
2022/03/26 00:32:21;;;;;;;10.38;6.03;;;10.00;61.70;;;;;;2067571;28;20031;-88
2022/03/26 00:33:22;;;;;;;12.35;6.25;;;10.00;61.70;;;;;;2064823;28;20149;-88
2022/03/26 00:34:23;;;;;;;12.52;6.43;;;10.00;61.70;;;;;;2057684;28;20039;-89
2022/03/26 00:35:23;;;;;;;11.27;6.15;;;10.00;61.80;;;;;;2065462;28;20057;-88
2022/03/26 00:36:24;;;;;;;12.32;6.45;;;10.00;61.80;;;;;;2065506;28;20030;-88
2022/03/26 00:37:25;;;;;;;10.93;6.30;;;10.00;61.80;;;;;;2056474;28;20062;-88
2022/03/26 00:38:26;;;;;;;10.73;6.10;;;10.00;61.90;;;;;;2055355;28;20473;-88
2022/03/26 00:39:26;;;;;;;10.90;6.47;;;10.00;61.90;;;;;;2056615;28;20078;-88
2022/03/26 00:40:27;;;;;;;11.93;6.53;;;10.00;62.50;;;;;;2056273;28;20109;-88
2022/03/26 00:41:28;;;;;;;14.30;7.10;;;10.00;61.90;;;;;;2073355;28;20045;-88
2022/03/26 00:42:29;;;;;;;11.35;6.45;;;9.90;61.90;;;;;;2065718;28;20032;-89
2022/03/26 00:43:29;;;;;;;11.80;7.28;;;9.90;61.90;;;;;;2048328;28;20491;-88
2022/03/26 00:44:30;;;;;;;14.23;7.25;;;9.90;62.00;;;;;;2049493;29;20027;-88
2022/03/26 00:45:31;;;;;;;13.20;7.15;;;9.90;62.10;;;;;;2057237;28;20023;-88
2022/03/26 00:46:31;;;;;;;11.50;7.18;;;9.90;62.10;;;;;;2049752;28;20023;-88
2022/03/26 00:47:32;;;;;;;11.85;6.82;;;9.90;62.10;;;;;;2055287;28;20512;-88
2022/03/26 00:48:33;;;;;;;15.82;7.35;;;9.90;62.10;;;;;;2048583;28;20487;-89
2022/03/26 00:49:34;;;;;;;13.85;7.47;;;9.90;62.20;;;;;;2062472;28;20034;-88
2022/03/26 00:50:35;;;;;;;13.73;6.70;;;9.90;62.20;;;;;;2057583;28;20117;-87
2022/03/26 00:51:35;;;;;;;15.20;8.05;;;9.90;62.20;;;;;;2063444;28;20057;-88
2022/03/26 00:52:37;;;;;;;14.05;7.30;;;9.80;62.20;;;;;;2049224;28;20078;-88
2022/03/26 00:53:37;;;;;;;14.63;7.65;;;9.80;62.20;;;;;;2049491;28;20090;-88
2022/03/26 00:54:39;;;;;;;12.45;6.95;;;9.90;62.20;;;;;;2049447;28;20569;-88
2022/03/26 00:55:39;;;;;;;14.90;7.15;;;9.80;62.80;;;;;;2057210;28;20035;-88
2022/03/26 00:56:41;;;;;;;14.75;7.85;;;9.80;62.20;;;;;;2041777;29;20422;-88
2022/03/26 00:57:42;;;;;;;13.15;7.68;;;9.90;62.30;;;;;;2049346;28;20031;-88
2022/03/26 00:58:43;;;;;;;14.38;7.30;;;9.90;62.30;;;;;;2041121;29;20394;-88
2022/03/26 00:59:44;;;;;;;16.13;7.88;;;9.80;62.30;;;;;;2055986;28;20441;-88
2022/03/26 01:00:45;;;;;;;14.55;7.53;;;9.80;62.30;;;;;;2057323;28;20137;-88
2022/03/26 01:01:46;;;;;;;14.25;7.60;;;9.80;62.30;;;;;;2042175;28;20028;-88
2022/03/26 01:02:47;;;;;;;13.07;7.00;;;9.80;62.50;;;;;;2065337;28;20493;-88
2022/03/26 01:03:47;;;;;;;12.57;7.20;;;9.80;62.30;;;;;;2057175;28;20047;-88
2022/03/26 01:04:48;;;;;;;14.30;7.60;;;9.80;62.40;;;;;;2057439;28;20065;-88
2022/03/26 01:05:48;;;;;;;15.35;7.53;;;9.70;62.40;;;;;;2065420;28;20450;-88
2022/03/26 01:06:49;;;;;;;13.25;7.20;;;9.70;62.40;;;;;;2065043;28;20500;-88
2022/03/26 01:07:52;;;;;;;12.50;7.20;;;9.80;63.10;;;;;;2072794;28;20632;-88
2022/03/26 01:08:53;;;;;;;12.13;7.13;;;9.70;62.50;;;;;;2062284;28;20462;-88
2022/03/26 01:09:55;;;;;;;14.27;7.38;;;9.70;62.50;;;;;;2055796;28;20031;-88
2022/03/26 01:10:55;;;;;;;14.18;7.57;;;9.70;63.20;;;;;;2064955;28;20044;-88
2022/03/26 01:11:56;;;;;;;14.10;7.35;;;9.70;62.70;;;;;;2064803;28;20026;-88
2022/03/26 01:12:57;;;;;;;13.90;7.93;;;9.70;62.70;;;;;;2057053;28;20501;-88
2022/03/26 01:13:57;;;;;;;14.00;7.60;;;9.70;62.80;;;;;;2049225;28;20027;-88
2022/03/26 01:14:58;;;;;;;13.93;7.70;;;9.60;62.80;;;;;;2049356;28;20035;-88
2022/03/26 01:15:59;;;;;;;13.85;7.60;;;9.60;62.80;;;;;;2057232;28;20042;-89
2022/03/26 01:17:00;;;;;;;12.15;7.57;;;9.60;62.90;;;;;;2066175;28;20030;-88
2022/03/26 01:18:00;;;;;;;12.50;7.30;;;9.60;62.90;;;;;;2056956;28;20498;-89
2022/03/26 01:19:01;;;;;;;13.68;7.68;;;9.60;63.00;;;;;;2058280;28;20126;-88
2022/03/26 01:20:04;;;;;;;13.55;7.85;;;9.60;63.00;;;;;;2048440;28;20039;-88
2022/03/26 01:21:04;;;;;;;12.30;7.50;;;9.60;63.10;;;;;;2048634;28;20494;-88
2022/03/26 01:22:05;;;;;;;13.93;7.50;;;9.60;63.10;;;;;;2049279;28;20059;-88
2022/03/26 01:23:06;;;;;;;14.02;7.50;;;9.60;63.10;;;;;;2043031;28;20056;-88
2022/03/26 01:24:07;;;;;;;13.90;7.55;;;9.50;63.10;;;;;;2049189;28;20058;-88
2022/03/26 01:25:08;;;;;;;14.23;7.90;;;9.50;63.20;;;;;;2056625;28;20429;-88
2022/03/26 01:26:08;;;;;;;12.93;7.85;;;9.50;63.20;;;;;;2065045;28;20504;-88
2022/03/26 01:27:09;;;;;;;12.43;7.30;;;9.50;63.30;;;;;;2063814;28;20018;-88
2022/03/26 01:28:10;;;;;;;13.15;7.10;;;9.50;63.30;;;;;;2056788;28;20066;-88
2022/03/26 01:29:10;;;;;;;14.50;7.72;;;9.50;63.30;;;;;;2065110;28;20440;-88
2022/03/26 01:30:12;;;;;;;13.38;8.10;;;9.50;63.30;;;;;;2056324;28;20110;-88
2022/03/26 01:31:13;;;;;;;14.82;7.90;;;9.50;63.40;;;;;;2064218;28;20086;-88
2022/03/26 01:32:14;;;;;;;15.63;8.23;;;9.40;63.40;;;;;;2056989;28;20133;-88
2022/03/26 01:33:15;;;;;;;15.38;8.05;;;9.40;63.40;;;;;;2067410;28;20026;-88
2022/03/26 01:34:15;;;;;;;13.07;7.32;;;9.40;63.50;;;;;;2065013;28;20038;-88
2022/03/26 01:35:16;;;;;;;16.65;7.80;;;9.40;63.50;;;;;;2065063;28;20113;-89
2022/03/26 01:36:17;;;;;;;14.30;8.50;;;9.40;63.50;;;;;;2073096;28;20033;-88
2022/03/26 01:37:17;;;;;;;14.57;8.25;;;9.40;63.50;;;;;;2073107;28;20107;-88
2022/03/26 01:38:18;;;;;;;14.75;8.40;;;9.40;63.50;;;;;;2064201;28;20034;-89
2022/03/26 01:39:20;;;;;;;12.70;7.35;;;9.40;63.50;;;;;;2064823;28;20510;-88
2022/03/26 01:40:21;;;;;;;15.40;8.25;;;9.40;64.20;;;;;;2063529;28;20026;-88
2022/03/26 01:41:22;;;;;;;15.80;7.72;;;9.30;63.50;;;;;;2049044;28;20024;-88
2022/03/26 01:42:23;;;;;;;16.27;8.80;;;9.40;63.60;;;;;;2053580;28;20099;-89
2022/03/26 01:43:23;;;;;;;14.18;7.65;;;9.40;63.60;;;;;;2065519;28;20036;-88
2022/03/26 01:44:24;;;;;;;13.02;7.93;;;9.40;63.70;;;;;;2073159;28;20029;-88
2022/03/26 01:45:25;;;;;;;15.15;8.13;;;9.40;63.60;;;;;;2072831;28;20109;-88
2022/03/26 01:46:26;;;;;;;14.38;7.80;;;9.30;63.60;;;;;;2056866;28;20121;-88
2022/03/26 01:47:26;;;;;;;15.23;8.65;;;9.30;63.70;;;;;;2056926;28;20034;-88
2022/03/26 01:48:27;;;;;;;13.15;7.60;;;9.30;63.60;;;;;;2069282;28;20085;-88
2022/03/26 01:49:28;;;;;;;13.48;7.68;;;9.30;63.60;;;;;;2056837;28;20137;-88
2022/03/26 01:50:30;;;;;;;15.15;8.07;;;9.30;63.70;;;;;;2056514;28;20069;-88
2022/03/26 01:51:30;;;;;;;14.90;7.90;;;9.30;63.70;;;;;;2062544;28;20048;-88
2022/03/26 01:52:31;;;;;;;15.65;8.40;;;9.30;63.70;;;;;;2053092;28;20037;-88
2022/03/26 01:53:31;;;;;;;14.48;8.77;;;9.30;63.70;;;;;;2049134;28;20027;-88
2022/03/26 01:54:32;;;;;;;13.13;7.55;;;9.30;63.80;;;;;;2065161;28;20519;-88
2022/03/26 01:55:34;;;;;;;16.10;8.55;;;9.30;63.80;;;;;;2064550;28;20125;-88
2022/03/26 01:56:35;;;;;;;15.88;8.45;;;9.20;63.70;;;;;;2063792;28;20033;-88
2022/03/26 01:57:36;;;;;;;15.98;8.55;;;9.30;63.80;;;;;;2072325;28;20030;-88
2022/03/26 01:58:36;;;;;;;16.95;9.02;;;9.20;63.80;;;;;;2073167;28;20073;-88
2022/03/26 01:59:41;;;;;;;13.35;7.88;;;9.20;63.80;;;;;;2063795;28;20045;-88
2022/03/26 02:00:42;;;;;;;14.50;8.30;;;9.20;63.80;;;;;;2064325;28;20468;-88
2022/03/26 02:01:42;;;;;;;14.88;8.27;;;9.20;63.90;;;;;;2055911;28;20038;-88
2022/03/26 02:02:43;;;;;;;14.60;8.30;;;9.20;63.90;;;;;;2050315;28;20065;-88
2022/03/26 02:03:44;;;;;;;15.68;8.48;;;9.20;64.00;;;;;;2064839;28;20045;-88
2022/03/26 02:04:45;;;;;;;13.25;8.18;;;9.20;64.00;;;;;;2072842;28;20025;-89
2022/03/26 02:05:45;;;;;;;13.30;8.07;;;9.20;64.10;;;;;;2064683;28;20044;-88
2022/03/26 02:06:48;;;;;;;14.65;8.07;;;9.20;64.10;;;;;;2069619;28;20026;-88
2022/03/26 02:07:50;;;;;;;16.67;8.85;;;9.20;64.10;;;;;;2066062;28;20030;-88
2022/03/26 02:08:50;;;;;;;16.17;8.25;;;9.10;64.20;;;;;;2074211;28;20026;-88
2022/03/26 02:09:51;;;;;;;14.40;8.43;;;9.20;64.20;;;;;;2072202;28;20033;-88
2022/03/26 02:10:52;;;;;;;13.63;8.35;;;9.10;64.20;;;;;;2072753;28;20037;-88
2022/03/26 02:11:53;;;;;;;16.83;8.65;;;9.10;64.20;;;;;;2064487;28;20035;-88
2022/03/26 02:12:53;;;;;;;13.63;8.05;;;9.10;64.20;;;;;;2064723;28;20033;-88
2022/03/26 02:13:56;;;;;;;17.20;8.73;;;9.10;64.30;;;;;;2057047;28;20053;-88
2022/03/26 02:14:58;;;;;;;14.90;8.60;;;9.10;64.30;;;;;;2056079;28;20117;-88
2022/03/26 02:15:59;;;;;;;16.08;9.25;;;9.10;64.30;;;;;;2070832;28;20029;-88
2022/03/26 02:16:59;;;;;;;15.25;8.55;;;9.10;64.30;;;;;;2064789;28;20076;-88
2022/03/26 02:18:00;;;;;;;13.90;8.15;;;9.10;64.30;;;;;;2064839;28;20026;-88
2022/03/26 02:19:01;;;;;;;14.38;8.25;;;9.10;64.40;;;;;;2071721;28;20037;-88
2022/03/26 02:20:05;;;;;;;15.68;8.57;;;9.10;64.40;;;;;;2061988;28;20023;-87
2022/03/26 02:21:05;;;;;;;15.07;8.65;;;9.10;64.40;;;;;;2071673;28;20034;-88
2022/03/26 02:22:07;;;;;;;12.95;7.75;;;9.10;64.40;;;;;;2064195;28;20420;-88
2022/03/26 02:23:08;;;;;;;16.02;8.77;;;9.10;64.40;;;;;;2056626;28;20062;-88
2022/03/26 02:24:09;;;;;;;14.95;8.85;;;9.10;64.40;;;;;;2056811;28;20027;-88
2022/03/26 02:25:10;;;;;;;13.93;8.05;;;9.00;64.40;;;;;;2064652;28;20097;-88
2022/03/26 02:26:17;;;;;;;15.68;8.88;;;9.10;64.50;;;;;;2058813;28;20041;-88
2022/03/26 02:27:18;;;;;;;14.50;8.63;;;9.00;64.50;;;;;;2059060;28;20031;-88
2022/03/26 02:28:19;;;;;;;16.55;9.02;;;9.00;64.50;;;;;;2065002;28;20038;-88
2022/03/26 02:29:19;;;;;;;18.40;9.00;;;9.00;64.50;;;;;;2067798;28;20037;-88
2022/03/26 02:30:21;;;;;;;16.38;9.23;;;9.00;64.60;;;;;;2052116;28;20039;-88
2022/03/26 02:31:22;;;;;;;15.57;8.82;;;9.00;64.60;;;;;;2048642;28;20035;-88
2022/03/26 02:32:27;;;;;;;15.40;9.02;;;8.90;64.60;;;;;;2063758;28;20022;-88
2022/03/26 02:33:27;;;;;;;16.10;8.50;;;8.90;64.70;;;;;;2069633;28;20125;-88
2022/03/26 02:34:28;;;;;;;15.85;9.38;;;8.90;64.70;;;;;;2060385;28;20475;-88
2022/03/26 02:35:29;;;;;;;15.30;8.75;;;8.90;64.70;;;;;;2064710;28;20057;-88
2022/03/26 02:36:29;;;;;;;16.33;9.05;;;8.90;64.70;;;;;;2072103;28;20508;-88
2022/03/26 02:37:31;;;;;;;17.48;9.27;;;8.90;64.70;;;;;;2056597;28;20050;-88
2022/03/26 02:38:33;;;;;;;15.50;9.25;;;8.90;64.70;;;;;;2053764;28;20030;-88
2022/03/26 02:39:33;;;;;;;15.70;9.40;;;8.90;64.70;;;;;;2058325;28;20128;-88
2022/03/26 02:40:34;;;;;;;16.38;9.07;;;8.90;64.70;;;;;;2051027;29;20019;-89
2022/03/26 02:41:35;;;;;;;15.02;8.85;;;8.90;64.70;;;;;;2051518;28;20490;-88
2022/03/26 02:42:36;;;;;;;14.90;8.85;;;8.90;64.60;;;;;;2044778;29;20028;-88
2022/03/26 02:43:37;;;;;;;17.33;8.95;;;8.90;65.20;;;;;;2051228;28;20122;-88
2022/03/26 02:44:38;;;;;;;15.82;9.73;;;8.90;64.60;;;;;;2053552;28;20030;-88
2022/03/26 02:45:46;;;;;;;16.65;10.02;;;8.90;64.60;;;;;;2059309;28;20085;-88
2022/03/26 02:46:47;;;;;;;15.27;8.88;;;8.90;64.70;;;;;;2057014;28;20037;-88
2022/03/26 02:47:49;;;;;;;16.85;9.75;;;8.80;64.60;;;;;;2051220;28;20513;-88
2022/03/26 02:48:50;;;;;;;17.63;9.27;;;8.80;64.60;;;;;;2064012;28;20102;-88
2022/03/26 02:49:50;;;;;;;16.92;9.52;;;8.90;64.70;;;;;;2083493;28;20119;-88
2022/03/26 02:50:52;;;;;;;18.38;9.48;;;8.80;64.60;;;;;;2075120;28;20423;-87
2022/03/26 02:51:52;;;;;;;15.38;9.25;;;8.80;64.60;;;;;;2075089;28;20622;-88
2022/03/26 02:52:53;;;;;;;16.58;9.25;;;8.80;64.70;;;;;;2067340;28;20023;-88
2022/03/26 02:53:54;;;;;;;16.30;9.40;;;8.80;64.70;;;;;;2067245;28;20113;-88
2022/03/26 02:54:54;;;;;;;17.77;9.88;;;8.80;64.70;;;;;;2067446;28;20029;-88
2022/03/26 02:55:55;;;;;;;15.60;9.10;;;8.80;64.80;;;;;;2075436;28;20034;-88
2022/03/26 02:56:56;;;;;;;18.83;9.55;;;8.80;64.80;;;;;;2066665;28;20030;-87
2022/03/26 02:57:56;;;;;;;15.88;9.35;;;8.80;65.40;;;;;;2067025;28;20054;-88
2022/03/26 02:58:57;;;;;;;16.83;8.95;;;8.80;64.90;;;;;;2058471;28;20416;-88
2022/03/26 02:59:58;;;;;;;16.02;9.27;;;8.70;64.80;;;;;;2057962;28;20034;-88
2022/03/26 03:00:59;;;;;;;16.00;9.10;;;8.70;64.90;;;;;;2051061;28;20035;-88
2022/03/26 03:01:59;;;;;;;15.40;9.10;;;8.70;64.90;;;;;;2059262;28;20023;-88
2022/03/26 03:03:00;;;;;;;17.83;9.45;;;8.70;65.00;;;;;;2066259;28;20093;-88
2022/03/26 03:04:01;;;;;;;15.77;9.07;;;8.70;65.10;;;;;;2058901;28;20074;-88
2022/03/26 03:05:02;;;;;;;16.27;9.27;;;8.70;65.10;;;;;;2067789;28;20030;-88
2022/03/26 03:06:03;;;;;;;15.68;9.60;;;8.60;65.10;;;;;;2067417;28;20536;-88
2022/03/26 03:07:04;;;;;;;16.38;9.65;;;8.70;65.20;;;;;;2068964;28;20069;-88
2022/03/26 03:08:04;;;;;;;18.58;10.00;;;8.70;65.20;;;;;;2075446;28;20032;-88
2022/03/26 03:09:07;;;;;;;15.27;8.88;;;8.70;65.20;;;;;;2065168;28;20428;-88
2022/03/26 03:10:07;;;;;;;16.80;9.38;;;8.60;65.20;;;;;;2073174;28;20153;-88
2022/03/26 03:11:08;;;;;;;16.58;9.57;;;8.60;65.10;;;;;;2059219;28;20037;-88
2022/03/26 03:12:09;;;;;;;15.07;8.80;;;8.70;65.20;;;;;;2051324;28;20122;-88
2022/03/26 03:13:11;;;;;;;17.05;9.32;;;8.70;65.20;;;;;;2051296;28;20036;-88
2022/03/26 03:14:11;;;;;;;16.30;9.07;;;8.70;65.10;;;;;;2051356;28;20023;-88
2022/03/26 03:15:13;;;;;;;16.58;9.50;;;8.70;65.10;;;;;;2066923;28;20121;-88
2022/03/26 03:16:14;;;;;;;15.13;8.75;;;8.70;65.20;;;;;;2059202;28;20387;-88
2022/03/26 03:17:15;;;;;;;17.63;9.15;;;8.70;65.20;;;;;;2051579;28;20052;-88
2022/03/26 03:18:16;;;;;;;17.50;9.52;;;8.70;65.10;;;;;;2043836;28;20051;-88
2022/03/26 03:19:17;;;;;;;16.92;9.38;;;8.70;65.10;;;;;;2057382;28;20031;-88
2022/03/26 03:20:19;;;;;;;15.98;8.77;;;8.70;65.10;;;;;;2054719;28;20031;-88
2022/03/26 03:21:19;;;;;;;17.33;9.52;;;8.70;65.10;;;;;;2052433;28;20043;-88
2022/03/26 03:22:20;;;;;;;19.05;9.43;;;8.70;65.20;;;;;;2059264;28;20039;-88
2022/03/26 03:23:21;;;;;;;16.17;8.98;;;8.70;65.20;;;;;;2059099;28;20632;-88
2022/03/26 03:24:21;;;;;;;16.67;9.63;;;8.70;65.20;;;;;;2067121;28;20027;-88
2022/03/26 03:25:25;;;;;;;14.80;8.88;;;8.70;65.20;;;;;;2058828;28;20018;-88
2022/03/26 03:26:26;;;;;;;16.10;9.77;;;8.70;65.30;;;;;;2051846;28;20077;-88
2022/03/26 03:27:27;;;;;;;17.83;9.27;;;8.70;65.30;;;;;;2059207;28;20157;-88
2022/03/26 03:28:28;;;;;;;15.82;9.35;;;8.70;65.30;;;;;;2042411;29;20024;-88
2022/03/26 03:29:29;;;;;;;17.80;9.52;;;8.60;65.30;;;;;;2058097;28;20464;-88
2022/03/26 03:30:29;;;;;;;16.42;9.85;;;8.60;65.30;;;;;;2066642;28;20117;-88
2022/03/26 03:31:30;;;;;;;17.52;9.27;;;8.60;65.40;;;;;;2059086;28;20031;-88
2022/03/26 03:32:31;;;;;;;18.08;9.48;;;8.60;65.30;;;;;;2059288;28;20023;-88
2022/03/26 03:33:31;;;;;;;18.75;9.35;;;8.60;66.00;;;;;;2058958;28;20460;-88
2022/03/26 03:34:32;;;;;;;16.75;9.98;;;8.60;65.70;;;;;;2067030;28;20026;-88
2022/03/26 03:35:33;;;;;;;16.88;9.75;;;8.60;65.40;;;;;;2076007;28;20343;-88
2022/03/26 03:36:33;;;;;;;17.05;9.60;;;8.50;65.30;;;;;;2075298;28;20037;-88
2022/03/26 03:37:36;;;;;;;17.67;10.13;;;8.60;65.40;;;;;;2058793;28;20109;-88
2022/03/26 03:38:36;;;;;;;18.13;9.48;;;8.50;65.30;;;;;;2063931;28;20061;-88
2022/03/26 03:39:37;;;;;;;16.20;9.68;;;8.50;65.30;;;;;;2056104;28;20023;-88
2022/03/26 03:40:37;;;;;;;18.17;10.50;;;8.50;66.00;;;;;;2058710;28;20066;-88
2022/03/26 03:41:39;;;;;;;18.45;10.57;;;8.50;65.30;;;;;;2067141;28;20040;-88
2022/03/26 03:42:40;;;;;;;19.13;10.90;;;8.50;65.30;;;;;;2075244;28;20029;-88
2022/03/26 03:43:40;;;;;;;18.67;10.77;;;8.50;65.40;;;;;;2067028;28;20042;-88
2022/03/26 03:44:41;;;;;;;20.27;10.35;;;8.50;65.40;;;;;;2066055;28;20030;-88
2022/03/26 03:45:42;;;;;;;18.30;10.55;;;8.50;65.40;;;;;;2075564;28;20921;-88
2022/03/26 03:46:42;;;;;;;17.83;9.98;;;8.50;65.50;;;;;;2067218;28;20030;-88
2022/03/26 03:47:43;;;;;;;18.67;10.48;;;8.50;65.50;;;;;;2058974;28;20031;-88
2022/03/26 03:48:44;;;;;;;19.70;11.02;;;8.40;65.40;;;;;;2066699;28;20026;-88
2022/03/26 03:49:44;;;;;;;19.10;10.48;;;8.50;65.50;;;;;;2066507;28;20023;-88
2022/03/26 03:50:48;;;;;;;19.20;10.13;;;8.40;65.40;;;;;;2057315;28;20039;-88
2022/03/26 03:51:49;;;;;;;16.80;10.15;;;8.40;65.50;;;;;;2066125;28;20062;-88
2022/03/26 03:52:49;;;;;;;17.33;9.82;;;8.50;65.60;;;;;;2070424;28;20543;-88
2022/03/26 03:53:50;;;;;;;17.27;10.20;;;8.40;65.50;;;;;;2057895;28;20117;-88
2022/03/26 03:54:51;;;;;;;17.50;9.63;;;8.40;66.10;;;;;;2057023;28;20037;-88
2022/03/26 03:55:51;;;;;;;20.25;10.63;;;8.40;65.50;;;;;;2060842;28;20038;-87
2022/03/26 03:56:53;;;;;;;17.75;10.65;;;8.40;65.60;;;;;;2065938;28;20431;-88
2022/03/26 03:57:53;;;;;;;17.30;10.38;;;8.40;65.50;;;;;;2057722;28;20035;-88
2022/03/26 03:58:54;;;;;;;18.52;10.55;;;8.50;65.60;;;;;;2064036;28;20054;-89
2022/03/26 03:59:55;;;;;;;18.08;10.82;;;8.50;65.60;;;;;;2065686;28;20042;-87
2022/03/26 04:00:57;;;;;;;16.00;9.20;;;8.40;65.60;;;;;;2052254;28;20081;-88
2022/03/26 04:01:57;;;;;;;18.33;10.35;;;8.40;65.60;;;;;;2058006;28;20031;-88
2022/03/26 04:03:00;;;;;;;16.85;10.23;;;8.40;65.70;;;;;;2057915;28;20030;-88
2022/03/26 04:04:00;;;;;;;17.20;10.18;;;8.40;65.70;;;;;;2057889;28;20045;-89
2022/03/26 04:05:01;;;;;;;18.55;10.55;;;8.50;65.80;;;;;;2065938;28;20026;-88
2022/03/26 04:06:03;;;;;;;18.30;10.32;;;8.50;65.80;;;;;;2065714;28;20125;-88
2022/03/26 04:07:04;;;;;;;18.52;10.45;;;8.40;65.80;;;;;;2065779;28;20041;-87
2022/03/26 04:08:04;;;;;;;18.45;10.63;;;8.40;65.80;;;;;;2058015;28;20053;-88
2022/03/26 04:09:05;;;;;;;18.05;10.35;;;8.40;66.00;;;;;;2048057;28;20071;-88
2022/03/26 04:10:09;;;;;;;18.33;10.05;;;8.40;66.00;;;;;;2058386;28;20077;-88
2022/03/26 04:11:10;;;;;;;16.33;10.07;;;8.40;66.00;;;;;;2071771;28;20022;-88
2022/03/26 04:12:11;;;;;;;18.40;10.57;;;8.40;66.10;;;;;;2065197;28;20409;-88
2022/03/26 04:13:11;;;;;;;19.45;10.75;;;8.30;66.20;;;;;;2064027;28;20026;-88
2022/03/26 04:14:12;;;;;;;18.90;10.60;;;8.30;66.90;;;;;;2073715;28;20029;-88
2022/03/26 04:15:14;;;;;;;22.10;11.70;;;8.30;66.30;;;;;;2073771;28;20045;-88
2022/03/26 04:16:15;;;;;;;18.83;10.85;;;8.30;66.30;;;;;;2066893;28;20031;-88
2022/03/26 04:17:15;;;;;;;18.13;10.65;;;8.30;66.40;;;;;;2073520;28;20527;-89
2022/03/26 04:18:16;;;;;;;23.10;12.20;;;8.20;66.50;;;;;;2073265;28;20076;-88
2022/03/26 04:19:18;;;;;;;21.50;12.02;;;8.30;66.60;;;;;;2060877;28;20109;-88
2022/03/26 04:20:19;;;;;;;20.35;11.85;;;8.30;66.60;;;;;;2065367;28;20548;-88
2022/03/26 04:21:20;;;;;;;22.85;12.57;;;8.30;66.60;;;;;;2057634;28;20389;-88
2022/03/26 04:22:20;;;;;;;21.40;11.65;;;8.30;66.60;;;;;;2057171;28;20055;-88
2022/03/26 04:23:21;;;;;;;20.58;11.75;;;8.30;66.60;;;;;;2073454;28;20045;-88
2022/03/26 04:24:23;;;;;;;20.45;12.20;;;8.30;66.60;;;;;;2073661;28;20030;-88
2022/03/26 04:25:23;;;;;;;21.75;11.90;;;8.30;66.60;;;;;;2073648;28;20443;-88
2022/03/26 04:26:24;;;;;;;21.90;12.65;;;8.30;66.60;;;;;;2065482;28;20030;-88
2022/03/26 04:27:25;;;;;;;21.88;12.05;;;8.30;66.60;;;;;;2057578;28;20058;-88
2022/03/26 04:28:26;;;;;;;20.33;11.77;;;8.30;66.60;;;;;;2073666;28;20021;-88
2022/03/26 04:29:27;;;;;;;20.83;11.93;;;8.30;67.20;;;;;;2070491;28;20377;-88
2022/03/26 04:30:27;;;;;;;22.92;12.95;;;8.30;66.60;;;;;;2065256;28;20028;-88
2022/03/26 04:31:28;;;;;;;21.45;12.27;;;8.30;66.60;;;;;;2065699;28;20069;-88
2022/03/26 04:32:30;;;;;;;21.38;12.45;;;8.30;66.70;;;;;;2057672;28;20085;-88
2022/03/26 04:33:30;;;;;;;21.42;12.15;;;8.30;66.70;;;;;;2071816;28;20018;-88
2022/03/26 04:34:31;;;;;;;22.15;13.23;;;8.30;66.80;;;;;;2073754;28;20056;-88
2022/03/26 04:35:32;;;;;;;23.65;13.40;;;8.30;66.90;;;;;;2073162;28;20049;-88
2022/03/26 04:36:34;;;;;;;24.58;12.60;;;8.30;66.90;;;;;;2073649;28;20492;-88
2022/03/26 04:37:35;;;;;;;21.10;12.68;;;8.30;66.90;;;;;;2074182;28;20061;-88
2022/03/26 04:38:36;;;;;;;25.58;14.15;;;8.30;67.00;;;;;;2071705;28;20026;-88
2022/03/26 04:39:37;;;;;;;25.15;13.85;;;8.30;67.00;;;;;;2073660;28;20076;-88
2022/03/26 04:40:37;;;;;;;23.65;13.25;;;8.30;67.10;;;;;;2065497;28;20023;-88
2022/03/26 04:41:38;;;;;;;23.15;13.70;;;8.30;67.20;;;;;;2057431;28;20539;-88
2022/03/26 04:42:42;;;;;;;22.58;13.48;;;8.30;67.90;;;;;;2046133;28;20039;-88
2022/03/26 04:43:43;;;;;;;22.40;13.27;;;8.30;67.40;;;;;;2058135;28;20035;-87
2022/03/26 04:44:44;;;;;;;25.98;14.70;;;8.30;67.40;;;;;;2074156;28;20068;-88
2022/03/26 04:45:44;;;;;;;23.83;13.98;;;8.30;67.40;;;;;;2073430;28;20030;-88
2022/03/26 04:46:45;;;;;;;22.52;13.65;;;8.30;67.50;;;;;;2065008;28;20038;-88
2022/03/26 04:47:47;;;;;;;24.23;14.13;;;8.30;67.50;;;;;;2067263;28;20120;-88
2022/03/26 04:48:47;;;;;;;24.08;14.23;;;8.20;67.50;;;;;;2071066;28;20104;-88
2022/03/26 04:49:48;;;;;;;24.60;14.82;;;8.20;67.50;;;;;;2064981;28;20124;-89
2022/03/26 04:50:48;;;;;;;26.58;14.55;;;8.20;67.60;;;;;;2067312;28;20025;-88
2022/03/26 04:51:49;;;;;;;25.83;15.00;;;8.20;67.70;;;;;;2054241;28;20066;-88
2022/03/26 04:52:50;;;;;;;24.60;14.88;;;8.20;67.70;;;;;;2055633;28;20497;-88
2022/03/26 04:53:51;;;;;;;23.70;14.57;;;8.20;67.80;;;;;;2041471;29;20494;-88
2022/03/26 04:54:52;;;;;;;23.45;14.35;;;8.20;67.80;;;;;;2050753;28;20031;-88
2022/03/26 04:55:52;;;;;;;24.83;15.30;;;8.20;67.90;;;;;;2073408;28;20050;-88
2022/03/26 04:56:53;;;;;;;23.45;14.35;;;8.20;68.00;;;;;;2065419;28;20030;-88
2022/03/26 04:57:53;;;;;;;26.02;15.07;;;8.20;68.10;;;;;;2056304;28;20042;-88
2022/03/26 04:58:55;;;;;;;25.67;15.60;;;8.10;68.10;;;;;;2065269;28;20026;-88
2022/03/26 04:59:55;;;;;;;25.23;15.13;;;8.20;68.20;;;;;;2057474;28;20105;-88
2022/03/26 05:00:56;;;;;;;26.67;15.13;;;8.10;68.20;;;;;;2062059;28;20509;-88
2022/03/26 05:01:57;;;;;;;25.88;14.70;;;8.10;68.20;;;;;;2056925;28;20039;-88
2022/03/26 05:02:57;;;;;;;22.55;14.13;;;8.10;68.30;;;;;;2056444;28;20033;-88
2022/03/26 05:03:58;;;;;;;30.05;16.17;;;8.00;68.40;;;;;;2048413;28;20051;-88
2022/03/26 05:04:59;;;;;;;26.05;15.38;;;8.00;68.50;;;;;;2057336;28;20125;-88
2022/03/26 05:05:59;;;;;;;23.77;14.60;;;8.00;68.60;;;;;;2057403;28;20039;-89
2022/03/26 05:07:00;;;;;;;24.17;14.32;;;8.00;68.70;;;;;;2057095;28;20038;-89
2022/03/26 05:08:01;;;;;;;24.63;14.70;;;7.90;68.80;;;;;;2033588;29;20028;-88
2022/03/26 05:09:02;;;;;;;24.33;14.23;;;7.90;68.90;;;;;;2039642;29;20625;-88
2022/03/26 05:10:03;;;;;;;24.73;15.20;;;7.90;69.00;;;;;;2049482;28;20027;-88
2022/03/26 05:11:05;;;;;;;23.15;14.50;;;7.90;69.10;;;;;;2068391;28;20053;-88
2022/03/26 05:12:06;;;;;;;25.60;15.05;;;7.80;69.10;;;;;;2064974;28;20471;-88
2022/03/26 05:13:07;;;;;;;23.88;14.63;;;7.80;69.10;;;;;;2065190;28;20081;-88
2022/03/26 05:14:08;;;;;;;23.05;14.32;;;7.90;69.20;;;;;;2073299;28;20109;-88
2022/03/26 05:15:09;;;;;;;24.33;14.45;;;7.80;69.30;;;;;;2065265;28;20443;-88
2022/03/26 05:16:10;;;;;;;23.77;14.55;;;7.80;69.40;;;;;;2041378;28;20487;-88